createdAt,value
2017-07-03T15:41:16.881Z,245
2017-07-03T15:42:16.507Z,225
2017-07-03T15:43:16.837Z,235
2017-07-03T15:44:16.839Z,230
2017-07-03T15:45:17.465Z,230
2017-07-03T15:46:16.197Z,235
2017-07-03T15:47:16.844Z,240
2017-07-03T15:48:16.212Z,245
2017-07-03T15:49:17.179Z,245
2017-07-03T15:50:18.500Z,250
2017-07-03T15:51:17.340Z,250
2017-07-03T15:52:17.192Z,255
2017-07-03T15:53:16.569Z,255
2017-07-03T15:54:16.242Z,260
2017-07-03T15:55:18.596Z,230
2017-07-03T15:56:17.076Z,230
2017-07-03T15:57:16.708Z,235
2017-07-03T15:58:16.585Z,245
2017-07-03T15:59:16.603Z,275
2017-07-03T16:00:18.871Z,270
2017-07-03T16:01:16.290Z,265
2017-07-03T16:02:16.633Z,260
2017-07-03T16:03:16.945Z,250
2017-07-03T16:04:16.302Z,240
2017-07-03T16:05:18.804Z,230
2017-07-03T16:06:16.952Z,225
2017-07-03T16:07:16.319Z,215
2017-07-03T16:08:16.330Z,210
2017-07-03T16:09:16.984Z,205
2017-07-03T16:10:17.394Z,200
2017-07-03T16:11:17.351Z,200
2017-07-03T16:12:16.357Z,190
2017-07-03T16:13:16.705Z,190
2017-07-03T16:14:17.339Z,190
2017-07-03T16:15:18.475Z,185
2017-07-03T16:16:17.015Z,185
2017-07-03T16:17:17.041Z,185
2017-07-03T16:18:16.714Z,185
2017-07-03T16:19:16.482Z,160
2017-07-03T16:20:17.667Z,165
2017-07-03T16:21:16.568Z,165
2017-07-03T16:22:16.478Z,170
2017-07-03T16:23:16.849Z,175
2017-07-03T16:24:17.117Z,185
2017-07-03T16:25:17.530Z,190
2017-07-03T16:26:16.815Z,195
2017-07-03T16:27:16.523Z,195
2017-07-03T16:28:16.803Z,200
2017-07-03T16:29:16.464Z,205
2017-07-03T16:30:18.160Z,185
2017-07-03T16:31:16.774Z,190
2017-07-03T16:32:16.801Z,185
2017-07-03T16:33:16.517Z,185
2017-07-03T16:34:17.141Z,185
2017-07-03T16:35:17.551Z,180
2017-07-03T16:36:16.836Z,180
2017-07-03T16:37:17.159Z,205
2017-07-03T16:38:16.838Z,210
2017-07-03T16:39:17.528Z,210
2017-07-03T16:40:18.262Z,210
2017-07-03T16:41:17.433Z,205
2017-07-03T16:42:17.179Z,205
2017-07-03T16:43:16.868Z,205
2017-07-03T16:44:17.517Z,200
2017-07-03T16:45:17.923Z,195
2017-07-03T16:46:17.198Z,190
2017-07-03T16:47:17.213Z,180
2017-07-03T16:48:17.214Z,180
2017-07-03T16:49:16.920Z,175
2017-07-03T16:50:19.162Z,170
2017-07-03T16:51:16.600Z,170
2017-07-03T16:52:16.286Z,165
2017-07-03T16:53:16.928Z,165
2017-07-03T16:54:16.939Z,160
2017-07-03T16:55:18.075Z,160
2017-07-03T16:56:17.472Z,135
2017-07-03T16:57:16.955Z,135
2017-07-03T16:58:16.955Z,135
2017-07-03T16:59:16.977Z,145
2017-07-03T17:00:17.424Z,135
2017-07-03T17:01:17.290Z,135
2017-07-03T17:02:17.292Z,130
2017-07-03T17:03:16.990Z,130
2017-07-03T17:04:17.325Z,130
2017-07-03T17:05:18.733Z,130
2017-07-03T17:06:16.725Z,135
2017-07-03T17:07:17.005Z,145
2017-07-03T17:08:16.434Z,135
2017-07-03T17:09:16.729Z,150
2017-07-03T17:10:19.360Z,155
2017-07-03T17:11:17.722Z,160
2017-07-03T17:12:17.031Z,145
2017-07-03T17:13:16.404Z,145
2017-07-03T17:14:16.739Z,145
2017-07-03T17:15:19.651Z,135
2017-07-03T17:16:17.049Z,130
2017-07-03T17:17:17.691Z,145
2017-07-03T17:18:16.745Z,145
2017-07-03T17:19:17.074Z,145
2017-07-03T17:20:18.307Z,145
2017-07-03T17:21:17.401Z,145
2017-07-03T17:22:17.428Z,150
2017-07-03T17:23:16.767Z,145
2017-07-03T17:24:17.428Z,145
2017-07-03T17:25:19.210Z,145
2017-07-03T17:26:16.784Z,145
2017-07-03T17:27:17.472Z,140
2017-07-03T17:28:17.756Z,140
2017-07-03T17:29:17.443Z,140
2017-07-03T17:30:17.582Z,140
2017-07-03T17:31:17.448Z,140
2017-07-03T17:32:17.139Z,140
2017-07-03T17:33:17.470Z,145
2017-07-03T17:34:17.163Z,145
2017-07-03T17:35:18.985Z,140
2017-07-03T17:36:17.159Z,140
2017-07-03T17:37:17.248Z,140
2017-07-03T17:38:17.169Z,140
2017-07-03T17:39:16.865Z,140
2017-07-03T17:40:18.601Z,145
2017-07-03T17:41:17.182Z,145
2017-07-03T17:42:17.056Z,150
2017-07-03T17:43:17.201Z,150
2017-07-03T17:44:17.520Z,155
2017-07-03T17:45:18.412Z,155
2017-07-03T17:46:16.883Z,155
2017-07-03T17:47:17.908Z,150
2017-07-03T17:48:18.608Z,145
2017-07-03T17:49:17.231Z,140
2017-07-03T17:50:19.228Z,135
2017-07-03T17:51:17.562Z,130
2017-07-03T17:52:17.335Z,125
2017-07-03T17:53:16.933Z,125
2017-07-03T17:54:16.954Z,125
2017-07-03T17:55:18.739Z,120
2017-07-03T17:56:17.260Z,120
2017-07-03T17:57:18.904Z,120
2017-07-03T17:58:17.273Z,120
2017-07-03T17:59:17.045Z,120
2017-07-03T18:00:43.062Z,115
2017-07-03T18:01:16.982Z,115
2017-07-03T18:02:17.290Z,115
2017-07-03T18:03:16.986Z,115
2017-07-03T18:04:16.997Z,115
2017-07-03T18:05:18.536Z,110
2017-07-03T18:06:17.628Z,110
2017-07-03T18:07:17.317Z,110
2017-07-03T18:08:17.321Z,110
2017-07-03T18:09:17.329Z,105
2017-07-03T18:10:18.780Z,105
2017-07-03T18:11:17.621Z,105
2017-07-03T18:12:17.438Z,105
2017-07-03T18:13:16.735Z,100
2017-07-03T18:14:17.697Z,100
2017-07-03T18:15:19.357Z,100
2017-07-03T18:16:17.704Z,95
2017-07-03T18:17:17.701Z,95
2017-07-03T18:18:17.831Z,95
2017-07-03T18:19:17.702Z,90
2017-07-03T18:20:18.588Z,90
2017-07-03T18:21:17.065Z,95
2017-07-03T18:22:17.766Z,95
2017-07-03T18:23:17.392Z,95
2017-07-03T18:24:17.721Z,100
2017-07-03T18:25:17.821Z,100
2017-07-03T18:26:17.406Z,100
2017-07-03T18:27:18.836Z,95
2017-07-03T18:28:18.062Z,95
2017-07-03T18:29:17.740Z,90
2017-07-03T18:30:18.217Z,90
2017-07-03T18:31:17.441Z,85
2017-07-03T18:32:17.756Z,85
2017-07-03T18:33:16.810Z,80
2017-07-03T18:34:17.135Z,80
2017-07-03T18:35:19.574Z,75
2017-07-03T18:36:17.457Z,75
2017-07-03T18:37:17.165Z,75
2017-07-03T18:38:18.140Z,70
2017-07-03T18:39:17.792Z,70
2017-07-03T18:40:19.054Z,70
2017-07-03T18:41:17.169Z,70
2017-07-03T18:42:16.843Z,65
2017-07-03T18:43:18.986Z,65
2017-07-03T18:44:17.502Z,65
2017-07-03T18:45:18.608Z,65
2017-07-03T18:46:17.506Z,60
2017-07-03T18:47:17.857Z,60
2017-07-03T18:48:17.513Z,60
2017-07-03T18:49:17.215Z,60
2017-07-03T18:50:19.098Z,60
2017-07-03T18:51:17.233Z,60
2017-07-03T18:52:17.852Z,55
2017-07-03T18:53:18.372Z,55
2017-07-03T18:54:17.864Z,50
2017-07-03T18:55:18.641Z,50
2017-07-03T18:56:16.924Z,50
2017-07-03T18:57:17.872Z,50
2017-07-03T18:58:18.538Z,45
